Time;durP1;ratioP1;P1;durP2;ratioP2;P2;SDS_P1;SDS_P2;PMS_P1;PMS_P2;Temp;Humidity;BMP_temperature;BMP_pressure;BME280_temperature;BME280_humidity;BME280_pressure;Samples;Min_cycle;Max_cycle;Signal;HPM_P1;HPM_P2
2023/01/19 00:01:13;;;;;;;9.80;8.60;;;;;;;0.63;100.00;95630.03;5071025;28;20335;-57
2023/01/19 00:03:39;;;;;;;10.10;8.77;;;;;;;0.59;100.00;95633.78;5072245;28;20206;-58
2023/01/19 00:06:06;;;;;;;10.67;9.07;;;;;;;0.59;100.00;95630.34;5071989;28;20217;-57
2023/01/19 00:08:33;;;;;;;9.03;8.13;;;;;;;0.61;100.00;95631.06;5073757;28;20217;-58
2023/01/19 00:10:59;;;;;;;9.57;8.47;;;;;;;0.58;100.00;95632.09;5073072;28;20202;-58
2023/01/19 00:13:26;;;;;;;9.23;8.33;;;;;;;0.60;100.00;95632.84;5072017;28;20209;-57
2023/01/19 00:15:52;;;;;;;12.10;9.53;;;;;;;0.61;100.00;95634.50;5071649;28;20656;-57
2023/01/19 00:18:20;;;;;;;10.50;8.37;;;;;;;0.68;100.00;95632.28;5071988;28;20232;-58
2023/01/19 00:20:47;;;;;;;9.70;8.67;;;;;;;0.58;100.00;95632.09;5071080;28;20241;-58
2023/01/19 00:23:14;;;;;;;11.10;9.23;;;;;;;0.59;100.00;95633.78;5072150;28;20206;-57
2023/01/19 00:25:42;;;;;;;9.30;8.30;;;;;;;0.48;100.00;95628.50;5071308;28;20201;-57
2023/01/19 00:28:09;;;;;;;9.13;8.23;;;;;;;0.55;100.00;95641.91;5071463;28;20633;-57
2023/01/19 00:30:35;;;;;;;10.10;8.63;;;;;;;0.53;100.00;95644.63;5071518;28;20213;-57
2023/01/19 00:33:02;;;;;;;9.73;8.73;;;;;;;0.49;100.00;95644.00;5071440;28;20213;-58
2023/01/19 00:35:30;;;;;;;10.57;8.50;;;;;;;0.42;100.00;95647.97;5070581;28;20210;-59
2023/01/19 00:37:56;;;;;;;12.20;8.40;;;;;;;0.37;100.00;95646.59;5071924;28;20207;-57
2023/01/19 00:40:23;;;;;;;10.10;8.97;;;;;;;0.34;100.00;95646.81;5069600;28;20606;-57
2023/01/19 00:42:50;;;;;;;10.13;8.33;;;;;;;0.32;100.00;95651.31;5070399;28;20518;-58
2023/01/19 00:45:18;;;;;;;9.73;8.73;;;;;;;0.32;100.00;95644.31;5071438;28;20205;-57
2023/01/19 00:47:47;;;;;;;10.80;8.80;;;;;;;0.27;100.00;95642.97;5071826;28;20284;-57
2023/01/19 00:50:15;;;;;;;10.07;8.77;;;;;;;0.23;100.00;95641.53;5071178;28;20204;-57
2023/01/19 00:52:44;;;;;;;9.57;8.07;;;;;;;0.24;100.00;95638.81;5071346;28;20212;-59
2023/01/19 00:55:12;;;;;;;9.23;8.20;;;;;;;0.15;100.00;95633.41;5071392;28;20209;-57
2023/01/19 00:57:40;;;;;;;9.13;8.13;;;;;;;0.08;100.00;95642.56;5071229;28;20524;-57
2023/01/19 01:00:10;;;;;;;10.07;8.23;;;;;;;-0.02;100.00;95648.38;5071110;28;20232;-62
2023/01/19 01:02:37;;;;;;;8.60;7.77;;;;;;;0.04;100.00;95646.31;5071250;28;20246;-58
2023/01/19 01:05:05;;;;;;;8.57;7.57;;;;;;;0.00;100.00;95656.91;5071633;28;20633;-57
2023/01/19 01:07:33;;;;;;;9.10;7.87;;;;;;;-0.08;100.00;95648.81;5071631;28;20209;-58
2023/01/19 01:10:01;;;;;;;8.27;7.40;;;;;;;-0.14;100.00;95654.41;5075821;28;20235;-57
2023/01/19 01:12:28;;;;;;;7.90;6.87;;;;;;;-0.24;100.00;95650.75;5088157;28;20639;-57
2023/01/19 01:14:55;;;;;;;11.90;7.80;;;;;;;-0.31;100.00;95659.88;5089996;28;20213;-58
2023/01/19 01:17:23;;;;;;;9.30;7.77;;;;;;;-0.26;100.00;95657.84;5092353;28;20212;-58
2023/01/19 01:19:50;;;;;;;8.30;7.33;;;;;;;-0.22;100.00;95655.84;5079246;28;20255;-58
2023/01/19 01:22:19;;;;;;;9.10;7.33;;;;;;;-0.21;100.00;95658.34;5071180;28;20202;-58
2023/01/19 01:24:47;;;;;;;11.47;8.23;;;;;;;-0.24;100.00;95655.94;5071092;28;20202;-58
2023/01/19 01:27:18;;;;;;;8.53;7.70;;;;;;;-0.39;100.00;95663.94;5071254;28;20206;-58
2023/01/19 01:29:45;;;;;;;8.13;7.33;;;;;;;-0.45;100.00;95662.56;5070836;28;20635;-57
2023/01/19 01:32:12;;;;;;;8.67;7.73;;;;;;;-0.49;100.00;95658.50;5071156;28;20208;-57
2023/01/19 01:34:39;;;;;;;8.00;7.20;;;;;;;-0.52;100.00;95663.91;5071628;28;20217;-58
2023/01/19 01:37:07;;;;;;;8.67;7.50;;;;;;;-0.54;100.00;95657.97;5072615;28;20211;-58
2023/01/19 01:39:33;;;;;;;8.43;7.20;;;;;;;-0.50;100.00;95667.25;5075328;28;20289;-59
2023/01/19 01:42:00;;;;;;;8.10;7.30;;;;;;;-0.51;100.00;95660.38;5087637;28;20205;-57
2023/01/19 01:44:50;;;;;;;9.33;7.57;;;;;;;-0.50;100.00;95662.03;5090766;28;20211;-57
2023/01/19 01:47:23;;;;;;;8.73;7.93;;;;;;;-0.47;100.00;95669.63;5091462;28;20216;-65
2023/01/19 01:49:51;;;;;;;9.00;7.90;;;;;;;-0.54;100.00;95665.78;5080506;28;20200;-56
2023/01/19 01:52:18;;;;;;;8.97;7.57;;;;;;;-0.54;100.00;95673.56;5076151;28;20217;-58
2023/01/19 01:54:44;;;;;;;8.97;8.07;;;;;;;-0.55;100.00;95674.47;5074331;28;20204;-57
2023/01/19 01:57:11;;;;;;;9.27;8.23;;;;;;;-0.48;100.00;95675.75;5075675;28;20203;-56
2023/01/19 01:59:42;;;;;;;9.23;8.07;;;;;;;-0.50;100.00;95677.63;5075218;28;20226;-57
2023/01/19 02:04:59;;;;;;;8.37;7.57;;;;;;;-0.50;100.00;95675.84;5074388;28;20222;-57
2023/01/19 02:13:18;;;;;;;9.03;8.07;;;;;;;-0.70;100.00;95675.47;5074373;28;20554;-59
2023/01/19 02:15:44;;;;;;;8.50;7.60;;;;;;;-0.85;100.00;95679.06;5074580;28;20204;-58
2023/01/19 02:18:12;;;;;;;8.97;8.07;;;;;;;-0.87;100.00;95678.31;5074905;28;20222;-57
2023/01/19 02:20:42;;;;;;;9.53;7.50;;;;;;;-0.81;100.00;95683.09;5073838;28;20223;-58
2023/01/19 02:23:17;;;;;;;10.07;7.77;;;;;;;-0.70;100.00;95683.25;5074265;28;20202;-57
2023/01/19 02:25:45;;;;;;;11.60;7.60;;;;;;;-0.71;100.00;95686.81;5074045;28;20279;-58
2023/01/19 02:28:12;;;;;;;8.90;8.07;;;;;;;-0.74;100.00;95690.41;5074219;28;20205;-57
2023/01/19 02:30:39;;;;;;;9.77;7.57;;;;;;;-0.72;100.00;95682.53;5074091;28;20203;-57
2023/01/19 02:33:06;;;;;;;9.07;8.03;;;;;;;-0.76;100.00;95687.09;5074246;28;20206;-57
2023/01/19 02:35:33;;;;;;;9.93;8.30;;;;;;;-0.87;100.00;95684.34;5073818;28;20588;-57
2023/01/19 02:38:01;;;;;;;8.80;7.90;;;;;;;-0.87;100.00;95678.31;5073716;28;20637;-57
2023/01/19 02:40:28;;;;;;;8.93;7.90;;;;;;;-0.84;100.00;95688.50;5073694;28;20239;-57
2023/01/19 02:42:59;;;;;;;10.17;8.43;;;;;;;-1.01;100.00;95692.16;5073791;28;20233;-58
2023/01/19 02:45:29;;;;;;;8.87;7.83;;;;;;;-1.11;100.00;95697.09;5073992;28;20221;-59
2023/01/19 02:47:56;;;;;;;9.07;8.17;;;;;;;-1.06;100.00;95702.81;5073841;28;20245;-57
2023/01/19 02:50:37;;;;;;;9.30;7.27;;;;;;;-1.13;100.00;95696.34;5073671;28;20197;-57
2023/01/19 02:53:13;;;;;;;8.73;7.77;;;;;;;-1.17;100.00;95700.06;5073571;28;20280;-58
2023/01/19 02:55:40;;;;;;;9.07;8.17;;;;;;;-1.11;100.00;95704.06;5073296;28;20526;-57
2023/01/19 02:58:11;;;;;;;8.67;7.70;;;;;;;-1.16;100.00;95704.34;5073874;28;20211;-58
2023/01/19 03:00:44;;;;;;;8.93;7.33;;;;;;;-1.18;100.00;95706.19;5073651;28;20203;-58
2023/01/19 03:03:18;;;;;;;9.40;7.93;;;;;;;-1.23;100.00;95713.41;5073938;28;20203;-58
2023/01/19 03:05:53;;;;;;;9.10;7.97;;;;;;;-1.33;100.00;95707.13;5073082;28;20298;-58
2023/01/19 03:08:30;;;;;;;9.40;7.60;;;;;;;-1.37;100.00;95716.03;5073936;28;20196;-58
2023/01/19 03:11:00;;;;;;;9.43;8.43;;;;;;;-1.42;100.00;95718.09;5073448;28;20187;-57
2023/01/19 03:13:30;;;;;;;9.83;8.00;;;;;;;-1.41;100.00;95713.72;5074424;28;20219;-58
2023/01/19 03:15:59;;;;;;;11.03;8.07;;;;;;;-1.39;100.00;95714.47;5074091;28;20212;-57
2023/01/19 03:18:27;;;;;;;8.80;7.90;;;;;;;-1.40;100.00;95721.41;5073725;28;20226;-57
2023/01/19 03:20:56;;;;;;;9.00;8.07;;;;;;;-1.42;100.00;95712.06;5073493;28;20233;-58
2023/01/19 03:23:26;;;;;;;8.60;7.73;;;;;;;-1.46;100.00;95719.19;5073733;28;20208;-57
2023/01/19 03:25:55;;;;;;;9.97;8.60;;;;;;;-1.40;100.00;95716.22;5074131;28;20201;-57
2023/01/19 03:28:23;;;;;;;9.13;8.13;;;;;;;-1.32;100.00;95718.34;5073786;28;20215;-58
2023/01/19 03:30:55;;;;;;;11.00;8.83;;;;;;;-1.24;100.00;95716.94;5077944;28;20203;-57
2023/01/19 03:33:26;;;;;;;10.47;8.77;;;;;;;-1.20;100.00;95715.81;5081647;28;20230;-57
2023/01/19 03:35:56;;;;;;;10.17;8.40;;;;;;;-1.19;100.00;95720.09;5077396;28;20202;-57
2023/01/19 03:38:25;;;;;;;9.23;8.10;;;;;;;-1.15;100.00;95713.78;5076458;28;20210;-58
2023/01/19 03:40:53;;;;;;;9.13;8.17;;;;;;;-1.18;100.00;95716.56;5082746;28;20220;-60
2023/01/19 03:43:22;;;;;;;10.43;8.13;;;;;;;-1.19;100.00;95714.91;5073630;28;20213;-58
2023/01/19 03:45:48;;;;;;;10.63;8.70;;;;;;;-1.16;100.00;95719.91;5073820;28;20204;-58
2023/01/19 03:48:17;;;;;;;10.73;7.93;;;;;;;-1.22;100.00;95719.44;5074678;28;20229;-57
2023/01/19 03:50:43;;;;;;;8.90;8.00;;;;;;;-1.32;100.00;95716.59;5075472;28;20215;-58
2023/01/19 03:53:12;;;;;;;9.20;8.17;;;;;;;-1.37;100.00;95716.03;5078691;28;20211;-58
2023/01/19 03:55:42;;;;;;;9.37;7.63;;;;;;;-1.38;100.00;95719.53;5079202;28;20230;-58
2023/01/19 03:58:10;;;;;;;9.60;8.30;;;;;;;-1.41;100.00;95717.13;5084588;28;20255;-58
2023/01/19 04:00:37;;;;;;;10.27;8.00;;;;;;;-1.43;100.00;95726.78;5074678;28;20220;-58
2023/01/19 04:03:04;;;;;;;10.60;7.17;;;;;;;-1.44;100.00;95729.44;5072309;28;20660;-56
2023/01/19 04:05:32;;;;;;;8.30;7.50;;;;;;;-1.45;100.00;95733.81;5072480;28;20647;-57
2023/01/19 04:07:59;;;;;;;12.67;7.90;;;;;;;-1.55;100.00;95723.16;5074974;28;20203;-57
2023/01/19 04:10:26;;;;;;;8.63;7.47;;;;;;;-1.59;100.00;95737.22;5094019;28;20263;-59
2023/01/19 04:12:57;;;;;;;8.50;7.57;;;;;;;-1.68;100.00;95739.53;5099022;28;20184;-57
2023/01/19 04:15:24;;;;;;;10.43;8.20;;;;;;;-1.66;100.00;95743.72;5091862;28;20199;-57
2023/01/19 04:17:50;;;;;;;10.00;7.63;;;;;;;-1.64;100.00;95738.44;5090589;28;20628;-58
2023/01/19 04:20:17;;;;;;;8.83;8.03;;;;;;;-1.57;100.00;95745.78;5076381;28;20226;-58
2023/01/19 04:22:45;;;;;;;8.60;7.70;;;;;;;-1.61;100.00;95740.84;5072969;28;20215;-58
2023/01/19 04:25:12;;;;;;;9.30;7.80;;;;;;;-1.62;100.00;95741.75;5072253;28;20206;-57
2023/01/19 04:27:38;;;;;;;9.40;7.77;;;;;;;-1.65;100.00;95744.53;5072414;28;20206;-58
2023/01/19 04:30:06;;;;;;;8.73;6.93;;;;;;;-1.72;100.00;95743.25;5071686;28;20222;-56
2023/01/19 04:32:34;;;;;;;8.87;7.97;;;;;;;-1.71;100.00;95747.50;5072202;28;20210;-57
2023/01/19 04:35:00;;;;;;;8.00;7.20;;;;;;;-1.74;100.00;95756.31;5071742;28;20195;-58
2023/01/19 04:37:27;;;;;;;8.77;7.83;;;;;;;-1.74;100.00;95742.50;5072272;28;20221;-58
2023/01/19 04:39:55;;;;;;;8.97;7.80;;;;;;;-1.75;100.00;95748.59;5071435;28;20214;-57
2023/01/19 04:42:21;;;;;;;9.07;8.07;;;;;;;-1.89;100.00;95748.59;5071757;28;20534;-58
2023/01/19 04:44:48;;;;;;;7.47;6.77;;;;;;;-1.93;100.00;95753.13;5071803;28;20206;-57
2023/01/19 04:47:14;;;;;;;8.37;7.43;;;;;;;-1.98;100.00;95754.31;5071116;28;20576;-58
2023/01/19 04:49:41;;;;;;;7.93;7.20;;;;;;;-1.94;100.00;95750.59;5071618;28;20214;-57
2023/01/19 04:52:07;;;;;;;9.53;7.20;;;;;;;-1.98;100.00;95759.50;5071890;28;21460;-57
2023/01/19 04:54:34;;;;;;;9.13;7.30;;;;;;;-1.94;100.00;95760.97;5071309;28;20211;-57
2023/01/19 04:57:02;;;;;;;8.63;7.50;;;;;;;-2.02;100.00;95767.44;5071932;28;20198;-58
2023/01/19 04:59:28;;;;;;;8.20;7.40;;;;;;;-2.02;100.00;95764.84;5071750;28;20237;-57
2023/01/19 05:01:55;;;;;;;8.57;7.47;;;;;;;-2.03;100.00;95770.97;5070797;28;20253;-57
2023/01/19 05:04:22;;;;;;;8.70;7.80;;;;;;;-2.04;100.00;95771.88;5071931;28;20210;-57
2023/01/19 05:06:48;;;;;;;10.67;8.13;;;;;;;-2.08;100.00;95774.72;5071939;28;20300;-59
2023/01/19 05:09:15;;;;;;;8.17;7.23;;;;;;;-1.97;100.00;95774.09;5071341;28;20221;-58
2023/01/19 05:11:42;;;;;;;8.03;7.23;;;;;;;-1.87;100.00;95776.06;5070965;28;20260;-58
2023/01/19 05:14:10;;;;;;;8.00;7.20;;;;;;;-1.83;100.00;95774.13;5071223;28;20207;-58
2023/01/19 05:16:36;;;;;;;9.07;7.27;;;;;;;-1.72;100.00;95771.75;5071186;28;20194;-58
2023/01/19 05:19:03;;;;;;;9.03;7.77;;;;;;;-1.65;100.00;95773.06;5070436;28;20642;-58
2023/01/19 05:21:29;;;;;;;9.47;7.67;;;;;;;-1.66;100.00;95772.22;5071016;28;20233;-58
2023/01/19 05:23:56;;;;;;;10.80;8.53;;;;;;;-1.63;100.00;95777.22;5070582;28;20213;-57
2023/01/19 05:26:22;;;;;;;8.70;7.90;;;;;;;-1.58;100.00;95776.94;5070790;28;20207;-57
2023/01/19 05:28:49;;;;;;;8.57;7.73;;;;;;;-1.55;100.00;95787.13;5071143;28;20268;-57
2023/01/19 05:31:17;;;;;;;10.17;7.80;;;;;;;-1.57;100.00;95781.22;5071047;28;20199;-57
2023/01/19 05:33:44;;;;;;;9.57;7.57;;;;;;;-1.56;100.00;95788.09;5070883;28;20210;-58
2023/01/19 05:36:10;;;;;;;9.17;8.27;;;;;;;-1.56;100.00;95785.50;5070658;28;20658;-57
2023/01/19 05:38:36;;;;;;;8.30;7.50;;;;;;;-1.47;100.00;95790.13;5071649;28;20207;-58
2023/01/19 05:41:04;;;;;;;8.00;7.20;;;;;;;-1.36;100.00;95800.69;5070181;28;20227;-58
2023/01/19 05:43:30;;;;;;;8.60;7.70;;;;;;;-1.25;100.00;95789.66;5070921;28;20217;-58
2023/01/19 05:45:57;;;;;;;7.30;6.60;;;;;;;-1.20;100.00;95792.78;5069835;28;20887;-58
2023/01/19 05:48:25;;;;;;;7.90;6.93;;;;;;;-1.12;100.00;95794.00;5070446;28;20201;-58
2023/01/19 05:50:51;;;;;;;8.23;6.90;;;;;;;-1.05;100.00;95782.31;5069952;28;20210;-58
2023/01/19 05:53:18;;;;;;;7.97;7.17;;;;;;;-1.06;100.00;95785.84;5070104;28;20199;-58
2023/01/19 05:55:44;;;;;;;10.80;7.30;;;;;;;-1.01;99.78;95785.56;5070362;28;20207;-58
2023/01/19 05:58:11;;;;;;;8.73;6.87;;;;;;;-1.03;99.59;95787.44;5071087;28;20200;-57
2023/01/19 06:00:37;;;;;;;8.27;6.90;;;;;;;-0.89;98.93;95784.00;5070250;28;20199;-57
2023/01/19 06:03:05;;;;;;;9.13;6.47;;;;;;;-0.89;98.45;95784.00;5070807;28;21468;-57
2023/01/19 06:05:34;;;;;;;8.17;6.37;;;;;;;-0.87;96.36;95787.31;5070727;28;20232;-57
2023/01/19 06:08:01;;;;;;;7.27;6.23;;;;;;;-0.89;95.89;95776.19;5069920;28;20219;-57
2023/01/19 06:10:27;;;;;;;7.97;6.80;;;;;;;-0.97;95.93;95775.84;5069852;28;21472;-61
2023/01/19 06:12:54;;;;;;;7.47;6.40;;;;;;;-0.96;97.33;95777.50;5070876;28;20205;-58
2023/01/19 06:15:21;;;;;;;7.03;6.27;;;;;;;-0.95;95.48;95784.34;5069903;28;20658;-58
2023/01/19 06:17:48;;;;;;;7.40;6.43;;;;;;;-0.95;94.45;95784.34;5070336;28;20205;-59
2023/01/19 06:20:14;;;;;;;7.97;5.80;;;;;;;-0.94;94.86;95786.84;5070447;28;20628;-59
2023/01/19 06:22:42;;;;;;;6.27;5.67;;;;;;;-0.84;94.47;95794.91;5069597;28;20688;-58
2023/01/19 06:25:10;;;;;;;6.73;6.03;;;;;;;-0.82;93.51;95806.03;5070101;28;20291;-59
2023/01/19 06:27:38;;;;;;;7.43;6.40;;;;;;;-0.94;92.55;95814.56;5070322;28;20614;-62
2023/01/19 06:30:06;;;;;;;6.30;5.80;;;;;;;-0.97;96.13;95825.97;5070287;28;20205;-58
2023/01/19 06:32:32;;;;;;;7.00;6.23;;;;;;;-1.02;95.53;95826.25;5070277;28;20233;-58
2023/01/19 06:34:59;;;;;;;7.40;6.53;;;;;;;-1.14;95.45;95821.81;5070207;28;20209;-58
2023/01/19 06:37:27;;;;;;;8.53;6.40;;;;;;;-1.17;95.73;95827.16;5070755;28;20200;-57
2023/01/19 06:39:55;;;;;;;7.10;6.40;;;;;;;-1.15;95.78;95827.91;5084028;28;20188;-58
2023/01/19 06:42:21;;;;;;;6.70;6.10;;;;;;;-1.17;92.61;95834.13;5098927;28;20217;-58
2023/01/19 06:44:48;;;;;;;6.90;6.20;;;;;;;-1.26;92.68;95835.50;5096955;28;20208;-60
2023/01/19 06:47:15;;;;;;;6.60;5.90;;;;;;;-1.34;93.41;95835.13;5088210;28;20208;-59
2023/01/19 06:49:41;;;;;;;7.10;6.40;;;;;;;-1.43;93.09;95835.69;5083685;28;20297;-57
2023/01/19 06:52:09;;;;;;;7.07;6.00;;;;;;;-1.38;98.49;95844.00;5085314;28;20213;-58
2023/01/19 06:54:37;;;;;;;6.87;6.10;;;;;;;-1.30;99.06;95848.75;5083846;28;20203;-58
2023/01/19 06:57:05;;;;;;;7.07;6.37;;;;;;;-1.28;97.68;95854.69;5083287;28;20210;-58
2023/01/19 06:59:32;;;;;;;6.97;6.27;;;;;;;-1.22;98.34;95849.97;5077106;28;20202;-57
2023/01/19 07:01:58;;;;;;;7.43;6.60;;;;;;;-1.21;97.05;95856.00;5074530;28;20238;-58
2023/01/19 07:04:26;;;;;;;6.27;5.67;;;;;;;-1.16;98.32;95859.97;5077907;28;20211;-58
2023/01/19 07:06:52;;;;;;;7.10;6.40;;;;;;;-1.15;97.34;95856.44;5076672;28;20200;-58
2023/01/19 07:09:19;;;;;;;6.90;6.23;;;;;;;-1.10;96.31;95859.59;5079576;28;20200;-58
2023/01/19 07:11:46;;;;;;;7.10;6.33;;;;;;;-1.10;97.30;95854.41;5080243;28;20207;-57
2023/01/19 07:14:14;;;;;;;7.10;6.40;;;;;;;-1.07;95.91;95856.00;5080770;28;20202;-58
2023/01/19 07:16:41;;;;;;;7.33;6.63;;;;;;;-1.04;94.57;95858.41;5079996;28;20196;-58
2023/01/19 07:19:09;;;;;;;9.07;6.87;;;;;;;-1.03;95.12;95860.88;5074196;28;20209;-59
2023/01/19 07:21:35;;;;;;;11.03;6.63;;;;;;;-1.00;96.65;95865.09;5073044;28;20227;-57
2023/01/19 07:24:02;;;;;;;7.00;6.37;;;;;;;-0.97;95.07;95869.25;5073450;28;20201;-57
2023/01/19 07:26:29;;;;;;;7.53;6.03;;;;;;;-0.97;95.52;95858.88;5073453;28;20213;-59
2023/01/19 07:28:56;;;;;;;6.60;5.87;;;;;;;-1.04;94.85;95859.25;5073839;28;20214;-57
2023/01/19 07:31:24;;;;;;;6.40;5.80;;;;;;;-1.10;94.14;95857.00;5073481;28;20214;-58
2023/01/19 07:33:50;;;;;;;7.03;6.33;;;;;;;-1.14;92.04;95860.72;5073884;28;20212;-57
2023/01/19 07:36:17;;;;;;;6.33;5.47;;;;;;;-1.15;93.96;95864.25;5073566;28;20298;-59
2023/01/19 07:38:44;;;;;;;6.20;5.57;;;;;;;-1.05;94.39;95875.72;5073782;28;20195;-57
2023/01/19 07:41:10;;;;;;;6.33;5.63;;;;;;;-0.99;95.15;95876.31;5073087;28;20210;-58
2023/01/19 07:43:37;;;;;;;7.83;5.93;;;;;;;-1.01;93.67;95877.22;5073612;28;20206;-57
2023/01/19 07:46:06;;;;;;;8.27;5.93;;;;;;;-1.07;95.66;95882.78;5073813;28;20550;-57
2023/01/19 07:48:34;;;;;;;7.93;6.23;;;;;;;-1.18;95.45;95879.97;5072961;28;20199;-58
2023/01/19 07:51:04;;;;;;;12.80;9.00;;;;;;;-1.16;97.37;95888.50;5072052;28;20287;-58
2023/01/19 07:53:30;;;;;;;7.27;6.40;;;;;;;-1.17;97.15;95884.22;5073798;28;20199;-59
2023/01/19 07:55:57;;;;;;;10.17;8.00;;;;;;;-1.16;96.65;95890.25;5073793;28;20519;-57
2023/01/19 07:58:25;;;;;;;7.50;6.73;;;;;;;-1.13;94.21;95884.88;5073165;28;20554;-58
2023/01/19 08:00:52;;;;;;;7.83;6.87;;;;;;;-1.18;97.39;95882.59;5072364;28;20237;-58
2023/01/19 08:03:19;;;;;;;8.03;6.40;;;;;;;-1.20;97.72;95894.78;5072312;28;20204;-58
2023/01/19 08:05:49;;;;;;;8.57;6.97;;;;;;;-1.17;98.76;95892.00;5071338;28;20603;-58
2023/01/19 08:08:16;;;;;;;7.77;6.17;;;;;;;-1.19;97.51;95901.66;5072659;28;20291;-57
2023/01/19 08:10:43;;;;;;;9.53;6.90;;;;;;;-1.16;98.50;95901.47;5073671;28;20222;-58
2023/01/19 08:13:09;;;;;;;7.10;6.40;;;;;;;-1.14;98.45;95902.22;5075954;28;20198;-59
2023/01/19 08:15:36;;;;;;;8.33;6.27;;;;;;;-1.03;92.74;95902.41;5074615;28;20220;-58
2023/01/19 08:18:05;;;;;;;6.37;5.70;;;;;;;-0.94;93.20;95895.00;5071777;28;20222;-58
2023/01/19 08:20:31;;;;;;;6.57;5.50;;;;;;;-0.88;93.71;95905.00;5071937;28;20242;-58
2023/01/19 08:23:01;;;;;;;8.30;6.40;;;;;;;-0.96;94.22;95897.72;5071890;28;20255;-57
2023/01/19 08:25:32;;;;;;;5.77;5.27;;;;;;;-0.88;97.21;95905.00;5071784;28;20265;-59
2023/01/19 08:27:59;;;;;;;8.10;5.90;;;;;;;-0.80;95.78;95914.00;5071559;28;20253;-58
2023/01/19 08:30:26;;;;;;;6.47;5.87;;;;;;;-0.76;96.73;95914.66;5071528;28;20204;-57
2023/01/19 08:32:56;;;;;;;6.93;6.10;;;;;;;-0.73;96.29;95901.50;5071610;28;20232;-59
2023/01/19 08:35:23;;;;;;;6.63;6.03;;;;;;;-0.71;95.90;95908.25;5071872;28;20211;-58
2023/01/19 08:37:49;;;;;;;7.87;6.43;;;;;;;-0.62;97.19;95912.06;5071475;28;20216;-58
2023/01/19 08:40:18;;;;;;;7.33;6.60;;;;;;;-0.47;96.36;95903.34;5070864;28;20633;-59
2023/01/19 08:42:45;;;;;;;6.70;5.57;;;;;;;-0.37;94.17;95911.41;5071260;28;20226;-57
2023/01/19 08:45:11;;;;;;;7.50;6.60;;;;;;;-0.26;94.61;95909.81;5071591;28;20199;-57
2023/01/19 08:47:38;;;;;;;7.07;6.17;;;;;;;-0.06;92.82;95911.97;5071420;28;20223;-58
2023/01/19 08:50:05;;;;;;;6.87;6.17;;;;;;;0.06;91.90;95914.75;5071179;28;20693;-58
2023/01/19 08:52:32;;;;;;;5.90;5.37;;;;;;;0.23;91.20;95904.94;5071680;28;20216;-58
2023/01/19 08:54:59;;;;;;;7.70;6.30;;;;;;;0.29;90.04;95908.88;5071312;28;20212;-58
2023/01/19 08:57:28;;;;;;;6.33;5.73;;;;;;;0.37;90.14;95907.47;5071679;28;20474;-59
2023/01/19 08:59:54;;;;;;;6.50;5.80;;;;;;;0.42;87.77;95901.97;5071476;28;20226;-59
2023/01/19 09:02:21;;;;;;;6.30;5.70;;;;;;;0.53;90.85;95903.88;5070435;28;20247;-59
2023/01/19 09:04:47;;;;;;;8.03;5.97;;;;;;;0.66;89.17;95908.16;5071513;28;20206;-58
2023/01/19 09:07:14;;;;;;;5.97;5.30;;;;;;;0.71;87.03;95897.47;5073216;28;20216;-58
2023/01/19 09:09:42;;;;;;;10.27;7.93;;;;;;;0.66;86.39;95915.97;5073885;28;20218;-58
2023/01/19 09:12:08;;;;;;;7.87;6.67;;;;;;;0.81;87.54;95914.97;5075400;28;20290;-59
2023/01/19 09:14:37;;;;;;;6.83;6.07;;;;;;;0.78;86.33;95911.75;5090646;28;20202;-59
2023/01/19 09:17:05;;;;;;;6.33;5.73;;;;;;;0.82;88.28;95908.81;5095352;28;20198;-59
2023/01/19 09:19:31;;;;;;;6.43;5.83;;;;;;;1.20;86.67;95915.84;5086618;28;20201;-58
2023/01/19 09:21:58;;;;;;;7.27;6.07;;;;;;;1.38;87.35;95914.59;5073119;28;20225;-58
2023/01/19 09:24:25;;;;;;;7.33;5.90;;;;;;;1.72;81.55;95913.91;5071670;28;20289;-58
2023/01/19 09:26:51;;;;;;;6.40;5.80;;;;;;;1.70;84.83;95910.56;5071205;28;20541;-58
2023/01/19 09:29:18;;;;;;;6.37;5.60;;;;;;;2.09;79.54;95919.13;5071554;28;20214;-58
2023/01/19 09:31:48;;;;;;;6.50;5.90;;;;;;;2.26;80.18;95908.31;5071249;28;20217;-57
2023/01/19 09:34:15;;;;;;;5.80;5.23;;;;;;;2.43;80.13;95913.16;5072219;28;20653;-58
2023/01/19 09:36:42;;;;;;;6.47;5.97;;;;;;;2.98;77.22;95917.72;5072948;28;20205;-57
2023/01/19 09:39:09;;;;;;;6.23;5.63;;;;;;;3.35;76.58;95921.03;5070994;28;20631;-59
2023/01/19 09:41:37;;;;;;;6.43;5.83;;;;;;;3.68;75.17;95918.44;5071076;28;20203;-59
2023/01/19 09:44:04;;;;;;;6.23;5.63;;;;;;;3.84;71.04;95910.22;5071310;28;20539;-59
2023/01/19 09:46:35;;;;;;;5.63;5.10;;;;;;;3.83;74.08;95911.16;5070801;28;20226;-59
2023/01/19 09:49:05;;;;;;;6.67;5.10;;;;;;;4.58;69.86;95903.41;5071756;28;20214;-59
2023/01/19 09:51:34;;;;;;;5.77;5.27;;;;;;;4.54;70.74;95905.44;5071163;28;20267;-59
2023/01/19 09:54:06;;;;;;;7.13;5.47;;;;;;;4.67;70.74;95898.25;5070128;28;20217;-58
2023/01/19 09:56:33;;;;;;;7.87;7.00;;;;;;;4.91;66.66;95896.25;5071088;28;20204;-59
2023/01/19 09:59:00;;;;;;;7.00;6.30;;;;;;;5.00;64.63;95905.94;5070820;28;20206;-57
2023/01/19 10:01:37;;;;;;;5.50;5.00;;;;;;;5.53;65.61;95900.59;5071066;28;20234;-57
2023/01/19 10:04:36;;;;;;;5.33;4.83;;;;;;;5.46;61.97;95904.72;5071128;28;20299;-59
2023/01/19 10:07:11;;;;;;;5.80;5.30;;;;;;;5.44;65.56;95901.41;5028419;28;20207;-58
2023/01/19 10:09:48;;;;;;;5.23;4.80;;;;;;;5.92;62.19;95894.59;5063276;28;20205;-58
2023/01/19 10:12:28;;;;;;;5.53;5.03;;;;;;;5.87;64.54;95888.94;5070794;28;20198;-58
2023/01/19 10:15:00;;;;;;;5.60;5.10;;;;;;;5.77;63.26;95893.28;5072126;28;20524;-59
2023/01/19 10:17:37;;;;;;;5.57;5.10;;;;;;;6.07;63.99;95894.22;5074204;28;20211;-58
2023/01/19 10:20:11;;;;;;;5.33;4.80;;;;;;;6.09;62.58;95894.94;5074816;28;20202;-58
2023/01/19 10:22:38;;;;;;;7.73;4.83;;;;;;;6.15;60.51;95894.41;5075198;28;20293;-58
2023/01/19 10:25:12;;;;;;;5.13;4.70;;;;;;;6.38;60.98;95895.81;5074893;28;20207;-59
2023/01/19 10:27:38;;;;;;;5.03;4.60;;;;;;;6.37;59.00;95886.31;5074647;28;20538;-59
2023/01/19 10:30:09;;;;;;;4.77;4.40;;;;;;;6.42;62.72;95881.47;5075862;28;20203;-58
2023/01/19 10:32:35;;;;;;;4.73;4.37;;;;;;;6.56;59.21;95888.94;5075212;28;20297;-59
2023/01/19 10:35:07;;;;;;;5.13;4.73;;;;;;;6.34;60.93;95882.13;5074667;28;20203;-59
2023/01/19 10:37:37;;;;;;;4.80;4.40;;;;;;;6.56;59.04;95882.84;5074838;28;20210;-57
2023/01/19 10:40:18;;;;;;;5.07;4.67;;;;;;;6.60;59.09;95877.19;5074470;28;20209;-58
2023/01/19 10:42:45;;;;;;;5.73;5.13;;;;;;;6.81;57.18;95875.25;5073466;28;20671;-58
2023/01/19 10:45:15;;;;;;;5.03;4.63;;;;;;;6.71;58.95;95876.22;5074331;28;20207;-58
2023/01/19 10:47:43;;;;;;;5.20;4.70;;;;;;;7.08;55.61;95873.72;5073620;28;20287;-58
2023/01/19 10:50:23;;;;;;;4.63;4.27;;;;;;;6.69;55.59;95873.75;5073791;28;20207;-58
2023/01/19 10:52:51;;;;;;;6.37;4.37;;;;;;;6.69;57.57;95883.44;5073739;28;20198;-58
2023/01/19 10:55:25;;;;;;;4.93;4.43;;;;;;;6.74;56.22;95879.41;5073753;28;20275;-59
2023/01/19 10:57:52;;;;;;;4.90;4.47;;;;;;;6.73;57.21;95875.13;5073640;28;20190;-59
2023/01/19 11:00:31;;;;;;;5.07;4.57;;;;;;;6.90;54.59;95869.19;5072796;28;20202;-60
2023/01/19 11:02:57;;;;;;;5.50;4.33;;;;;;;6.53;55.74;95876.09;5073593;28;20214;-58
2023/01/19 11:05:27;;;;;;;5.10;4.67;;;;;;;6.60;56.86;95874.56;5073206;28;20205;-58
2023/01/19 11:07:54;;;;;;;4.80;4.40;;;;;;;6.58;55.71;95876.50;5073305;28;20214;-58
2023/01/19 11:10:22;;;;;;;4.80;4.40;;;;;;;6.82;56.13;95878.72;5073280;28;20199;-59
2023/01/19 11:12:57;;;;;;;5.40;4.80;;;;;;;6.30;56.47;95874.69;5074029;28;20220;-58
2023/01/19 11:15:28;;;;;;;4.53;4.13;;;;;;;6.35;56.30;95877.72;5072588;28;20639;-58
2023/01/19 11:17:55;;;;;;;4.50;4.07;;;;;;;6.34;58.36;95879.50;5073294;28;20202;-57
2023/01/19 11:20:25;;;;;;;5.17;4.30;;;;;;;6.59;56.82;95877.34;5072697;28;20635;-58
2023/01/19 11:23:04;;;;;;;5.30;4.53;;;;;;;6.29;56.78;95879.09;5073467;28;20218;-59
2023/01/19 11:25:32;;;;;;;5.23;4.73;;;;;;;6.14;54.36;95871.72;5072348;28;20203;-58
2023/01/19 11:27:59;;;;;;;5.00;4.57;;;;;;;6.17;57.64;95872.28;5072566;28;20217;-58
2023/01/19 11:30:26;;;;;;;4.43;4.13;;;;;;;5.93;58.04;95871.81;5073115;28;20207;-59
2023/01/19 11:32:55;;;;;;;5.10;4.70;;;;;;;5.96;57.21;95874.16;5072803;28;20240;-58
2023/01/19 11:35:37;;;;;;;4.80;4.40;;;;;;;6.23;54.10;95865.69;5072649;28;20264;-59
2023/01/19 11:38:13;;;;;;;4.87;4.37;;;;;;;5.60;58.77;95865.03;5073548;28;20217;-58
2023/01/19 11:40:50;;;;;;;5.20;4.80;;;;;;;5.60;57.76;95862.41;5076496;28;20547;-58
2023/01/19 11:43:17;;;;;;;4.93;4.53;;;;;;;5.47;57.69;95867.06;5089993;28;20218;-58
2023/01/19 11:45:44;;;;;;;6.70;4.73;;;;;;;4.89;58.90;95866.69;5098026;28;20202;-59